Time;durP1;ratioP1;P1;durP2;ratioP2;P2;SDS_P1;SDS_P2;PMS_P1;PMS_P2;Temp;Humidity;BMP_temperature;BMP_pressure;BME280_temperature;BME280_humidity;BME280_pressure;Samples;Min_cycle;Max_cycle;Signal;HPM_P1;HPM_P2
2023/09/28 00:00:58;;;;;;;6.10;2.97;;;;;;;18.95;100.00;101105.88;5010490;28;20504;-48
2023/09/28 00:03:23;;;;;;;3.50;3.20;;;;;;;18.86;100.00;101101.97;5011882;28;20117;-46
2023/09/28 00:05:50;;;;;;;7.22;3.92;;;;;;;18.76;100.00;101103.50;5011528;28;20546;-47
2023/09/28 00:08:15;;;;;;;5.22;3.25;;;;;;;18.53;100.00;101064.06;5011879;28;20042;-45
2023/09/28 00:10:40;;;;;;;5.00;3.13;;;;;;;18.82;100.00;101104.94;5010890;28;20045;-47
2023/09/28 00:13:06;;;;;;;3.53;3.15;;;;;;;18.82;100.00;101112.94;5010477;28;20096;-47
2023/09/28 00:15:31;;;;;;;4.38;3.97;;;;;;;18.82;100.00;101104.94;5011679;28;20120;-48
2023/09/28 00:17:57;;;;;;;5.00;3.17;;;;;;;18.82;100.00;101102.25;5011697;28;20038;-47
2023/09/28 00:20:23;;;;;;;5.30;3.50;;;;;;;18.81;100.00;101117.41;5011767;28;20033;-47
2023/09/28 00:22:53;;;;;;;4.32;3.50;;;;;;;18.45;100.00;101048.50;5011535;28;20034;-46
2023/09/28 00:25:19;;;;;;;4.60;3.50;;;;;;;18.89;100.00;101114.25;5010443;28;20026;-47
2023/09/28 00:27:52;;;;;;;5.30;3.45;;;;;;;18.88;100.00;101120.56;5012189;28;20406;-46
2023/09/28 00:30:20;;;;;;;5.30;3.53;;;;;;;18.79;100.00;101122.00;5009823;28;20042;-51
2023/09/28 00:32:46;;;;;;;6.65;3.90;;;;;;;18.81;100.00;101122.75;5011921;28;20112;-51
2023/09/28 00:35:12;;;;;;;5.38;3.72;;;;;;;18.78;100.00;101120.25;5011978;28;20469;-47
2023/09/28 00:37:37;;;;;;;4.13;3.15;;;;;;;18.64;100.00;101104.25;5011024;28;20034;-48
2023/09/28 00:40:47;;;;;;;11.50;4.15;;;;;;;18.79;100.00;101142.47;5012131;28;20056;-49
2023/09/28 00:42:55;;;;;;;3.97;3.53;;;;;;;18.81;100.00;101133.41;5008524;28;20573;-46
2023/09/28 00:45:24;;;;;;;5.95;3.78;;;;;;;18.74;100.00;101131.22;5008900;28;20036;-48
2023/09/28 00:47:52;;;;;;;4.55;4.13;;;;;;;18.82;100.00;101136.94;5011323;28;20044;-47
2023/09/28 00:50:18;;;;;;;4.20;3.80;;;;;;;18.37;100.00;101064.13;4993141;28;20072;-48
2023/09/28 00:52:48;;;;;;;5.35;3.55;;;;;;;18.76;100.00;101145.31;5010437;28;20065;-46
2023/09/28 00:55:15;;;;;;;6.28;4.47;;;;;;;18.77;100.00;101136.34;5011343;28;20064;-50
2023/09/28 00:57:47;;;;;;;7.68;4.30;;;;;;;18.77;100.00;101129.19;5013669;28;20113;-50
2023/09/28 01:00:18;;;;;;;5.35;4.40;;;;;;;18.70;100.00;101132.34;5014624;28;20041;-48
2023/09/28 01:02:54;;;;;;;4.40;3.90;;;;;;;18.71;100.00;101139.41;5014661;28;20096;-48
2023/09/28 01:05:31;;;;;;;6.78;4.22;;;;;;;18.26;100.00;101079.03;5014585;28;20052;-46
2023/09/28 01:08:05;;;;;;;7.30;3.97;;;;;;;18.30;100.00;101096.56;5013512;28;20037;-50
2023/09/28 01:10:34;;;;;;;6.75;3.90;;;;;;;18.72;100.00;101152.63;4997086;28;20564;-47
2023/09/28 01:13:05;;;;;;;9.52;4.50;;;;;;;18.68;100.00;101136.94;5014716;28;20462;-50
2023/09/28 01:15:31;;;;;;;5.60;4.43;;;;;;;18.68;100.00;101156.44;5014905;28;20037;-47
2023/09/28 01:17:57;;;;;;;9.18;4.43;;;;;;;18.63;100.00;101145.19;5013927;28;20432;-45
2023/09/28 01:20:35;;;;;;;6.97;4.65;;;;;;;18.53;100.00;101139.56;5014519;28;20224;-49
2023/09/28 01:23:00;;;;;;;8.57;4.78;;;;;;;18.61;100.00;101151.56;5014294;28;20518;-47
2023/09/28 01:25:26;;;;;;;5.30;4.18;;;;;;;18.44;100.00;101129.44;5014353;28;20038;-47
2023/09/28 01:27:52;;;;;;;6.60;4.10;;;;;;;18.38;100.00;101136.94;5013162;28;20034;-47
2023/09/28 01:30:17;;;;;;;6.57;4.35;;;;;;;18.04;100.00;101087.44;5014488;28;20034;-52
2023/09/28 01:32:43;;;;;;;9.27;4.75;;;;;;;18.38;100.00;101136.94;5013702;28;20049;-46
2023/09/28 01:35:10;;;;;;;6.50;4.05;;;;;;;18.36;100.00;101141.47;5014599;28;20042;-45
2023/09/28 01:37:49;;;;;;;6.22;4.07;;;;;;;18.34;100.00;101141.59;5013915;28;20045;-47
2023/09/28 01:40:15;;;;;;;7.07;4.10;;;;;;;17.93;100.00;101092.56;5013138;28;20409;-47
2023/09/28 01:42:40;;;;;;;6.03;4.05;;;;;;;18.28;100.00;101154.41;5014531;28;20057;-48
2023/09/28 01:45:06;;;;;;;8.70;4.18;;;;;;;17.86;100.00;101078.72;5012979;28;20041;-46
2023/09/28 01:47:32;;;;;;;7.88;4.57;;;;;;;18.26;100.00;101151.00;5012767;28;20042;-49
2023/09/28 01:49:59;;;;;;;7.40;3.70;;;;;;;18.25;100.00;101158.13;5013390;28;20037;-46
2023/09/28 01:52:25;;;;;;;7.10;3.88;;;;;;;18.24;100.00;101156.41;5013935;28;20414;-48
2023/09/28 01:54:50;;;;;;;9.48;3.72;;;;;;;18.20;100.00;101170.00;5012757;28;20045;-50
2023/09/28 01:57:15;;;;;;;8.57;3.88;;;;;;;18.16;100.00;101173.78;5013870;28;20125;-48
2023/09/28 01:59:41;;;;;;;8.73;4.03;;;;;;;18.09;100.00;101161.78;5012640;28;20145;-45
2023/09/28 02:02:06;;;;;;;9.00;4.38;;;;;;;17.90;100.00;101146.00;5012646;28;20495;-48
2023/09/28 02:04:31;;;;;;;6.80;3.47;;;;;;;17.64;100.00;101101.38;5013275;28;20224;-47
2023/09/28 02:06:57;;;;;;;9.15;3.30;;;;;;;17.64;100.00;101110.22;5011924;28;20042;-47
2023/09/28 02:09:23;;;;;;;8.68;3.70;;;;;;;17.79;100.00;101141.28;5013233;28;20107;-47
2023/09/28 02:11:49;;;;;;;7.05;3.28;;;;;;;17.87;100.00;101159.50;5012582;28;20041;-48
2023/09/28 02:14:14;;;;;;;6.00;2.75;;;;;;;17.93;100.00;101170.66;5013276;28;20041;-48
2023/09/28 02:16:39;;;;;;;4.68;3.00;;;;;;;17.54;100.00;101098.38;5013259;28;20045;-46
2023/09/28 02:19:05;;;;;;;8.82;3.55;;;;;;;17.85;100.00;101153.41;5013174;28;20401;-47
2023/09/28 02:21:31;;;;;;;9.93;3.13;;;;;;;17.81;100.00;101157.19;5012228;28;20056;-47
2023/09/28 02:23:58;;;;;;;7.20;2.75;;;;;;;17.81;100.00;101171.34;5012189;28;20474;-46
2023/09/28 02:26:24;;;;;;;6.25;3.15;;;;;;;17.35;100.00;101097.69;5013190;28;20553;-46
2023/09/28 02:28:50;;;;;;;9.35;3.20;;;;;;;17.69;100.00;101165.84;5013150;28;20469;-46
2023/09/28 02:31:19;;;;;;;8.70;2.85;;;;;;;17.74;100.00;101185.97;5013350;28;20041;-51
2023/09/28 02:33:47;;;;;;;9.57;2.95;;;;;;;17.63;100.00;101184.88;5013758;28;20061;-48
2023/09/28 02:36:12;;;;;;;5.45;2.30;;;;;;;17.53;100.00;101181.81;5013532;28;20397;-46
2023/09/28 02:38:37;;;;;;;6.88;2.60;;;;;;;17.56;100.00;101191.47;5012739;28;20034;-50
2023/09/28 02:41:03;;;;;;;8.70;2.95;;;;;;;17.54;100.00;101201.31;5011822;28;20054;-47
2023/09/28 02:43:28;;;;;;;15.40;3.35;;;;;;;17.57;100.00;101214.47;5012890;28;20026;-47
2023/09/28 02:45:55;;;;;;;11.05;3.25;;;;;;;17.55;100.00;101216.34;5012753;28;20084;-45
2023/09/28 02:48:20;;;;;;;9.73;3.15;;;;;;;17.51;100.00;101228.97;5013015;28;20033;-51
2023/09/28 02:50:45;;;;;;;8.57;2.33;;;;;;;17.45;100.00;101226.63;5012883;28;20030;-47
2023/09/28 02:53:11;;;;;;;11.23;3.90;;;;;;;17.03;100.00;101157.09;5013056;28;20457;-47
2023/09/28 02:55:36;;;;;;;13.50;3.58;;;;;;;17.40;100.00;101229.53;5012697;28;20065;-49
2023/09/28 02:58:03;;;;;;;15.13;4.13;;;;;;;17.22;100.00;101209.22;5011287;28;20038;-50
2023/09/28 03:00:32;;;;;;;13.75;3.28;;;;;;;17.39;100.00;101232.28;5012613;28;20041;-47
2023/09/28 03:03:00;;;;;;;15.48;4.18;;;;;;;16.98;100.00;101173.31;5012697;28;20389;-48
2023/09/28 03:05:27;;;;;;;15.43;3.53;;;;;;;17.33;100.00;101249.44;5012707;28;20034;-50
2023/09/28 03:07:52;;;;;;;14.48;4.03;;;;;;;16.91;100.00;101165.75;5012352;28;20422;-49
2023/09/28 03:10:18;;;;;;;15.93;4.20;;;;;;;17.31;100.00;101253.09;5011443;28;20029;-50
2023/09/28 03:12:45;;;;;;;20.25;4.95;;;;;;;17.28;100.00;101264.78;5011301;28;20176;-48
2023/09/28 03:15:11;;;;;;;15.20;4.07;;;;;;;17.26;100.00;101253.34;5009935;28;20049;-47
2023/09/28 03:17:38;;;;;;;21.88;4.70;;;;;;;17.23;100.00;101247.34;5012457;28;20421;-50
2023/09/28 03:20:10;;;;;;;22.10;5.00;;;;;;;17.19;100.00;101245.81;4995247;28;20037;-47
2023/09/28 03:22:36;;;;;;;28.70;6.07;;;;;;;17.11;100.00;101238.22;5012674;28;20033;-49
2023/09/28 03:25:01;;;;;;;27.05;5.30;;;;;;;16.75;100.00;101184.31;5012023;28;20088;-48
2023/09/28 03:27:27;;;;;;;22.67;6.70;;;;;;;17.18;100.00;101260.91;5012483;28;20414;-48
2023/09/28 03:29:52;;;;;;;21.40;5.47;;;;;;;17.19;100.00;101259.09;5011171;28;20100;-48
2023/09/28 03:32:17;;;;;;;20.73;5.30;;;;;;;17.24;100.00;101254.38;5010545;28;20042;-51
2023/09/28 03:34:42;;;;;;;24.13;5.53;;;;;;;17.32;100.00;101260.16;5012222;28;20084;-46
2023/09/28 03:37:09;;;;;;;25.48;6.47;;;;;;;16.96;100.00;101180.50;5012467;28;20038;-46
2023/09/28 03:39:35;;;;;;;20.77;5.28;;;;;;;17.43;100.00;101252.44;5011860;28;20045;-47
2023/09/28 03:42:00;;;;;;;23.45;6.10;;;;;;;17.03;100.00;101170.41;5012083;28;20140;-45
2023/09/28 03:44:26;;;;;;;27.42;6.40;;;;;;;17.01;100.00;101167.84;5012093;28;20047;-45
2023/09/28 03:46:52;;;;;;;30.65;6.75;;;;;;;17.46;100.00;101252.28;5010696;28;20037;-46
2023/09/28 03:49:17;;;;;;;21.75;5.70;;;;;;;17.40;100.00;101256.13;5011157;28;20038;-44
2023/09/28 03:51:42;;;;;;;25.52;5.90;;;;;;;17.23;100.00;101250.88;5012254;28;20044;-48
2023/09/28 03:54:08;;;;;;;25.58;5.55;;;;;;;17.02;100.00;101230.72;5011983;28;20057;-46
2023/09/28 03:56:33;;;;;;;28.65;6.60;;;;;;;16.82;100.00;101206.97;5011884;28;20120;-46
2023/09/28 03:58:58;;;;;;;30.73;7.05;;;;;;;17.18;100.00;101274.19;5011877;28;20037;-48
2023/09/28 04:01:26;;;;;;;28.05;6.32;;;;;;;16.72;100.00;101200.44;5007749;28;20091;-50
2023/09/28 04:03:53;;;;;;;30.60;6.65;;;;;;;17.05;100.00;101269.59;5010280;28;20045;-45
2023/09/28 04:06:18;;;;;;;30.85;6.72;;;;;;;17.01;100.00;101279.53;5009957;28;20434;-45
2023/09/28 04:08:43;;;;;;;27.17;7.05;;;;;;;16.94;100.00;101278.13;5011781;28;20038;-45
2023/09/28 04:11:09;;;;;;;24.27;6.07;;;;;;;16.88;100.00;101278.44;5011810;28;20149;-49
2023/09/28 04:13:34;;;;;;;25.40;5.60;;;;;;;16.87;100.00;101276.72;5009061;28;20034;-46
2023/09/28 04:15:59;;;;;;;29.17;7.03;;;;;;;16.45;100.00;101213.28;5007420;28;20121;-44
2023/09/28 04:18:25;;;;;;;24.00;6.28;;;;;;;16.77;100.00;101288.78;5011768;28;20044;-47
2023/09/28 04:20:50;;;;;;;31.10;6.25;;;;;;;16.49;100.00;101232.59;5010624;28;20093;-51
2023/09/28 04:23:15;;;;;;;23.48;6.78;;;;;;;16.79;100.00;101287.75;5007676;28;20039;-44
2023/09/28 04:25:41;;;;;;;21.55;5.47;;;;;;;16.47;100.00;101223.84;4999067;28;20469;-47
2023/09/28 04:28:06;;;;;;;25.42;6.03;;;;;;;16.88;100.00;101289.06;5010313;28;20078;-45
2023/09/28 04:30:31;;;;;;;20.08;6.07;;;;;;;16.52;100.00;101238.59;5001804;28;20080;-47
2023/09/28 04:32:56;;;;;;;23.83;6.57;;;;;;;16.45;100.00;101244.31;4994877;28;20038;-50
2023/09/28 04:35:22;;;;;;;26.30;5.90;;;;;;;16.31;100.00;101231.72;5001398;28;20038;-47
2023/09/28 04:37:47;;;;;;;29.90;5.13;;;;;;;16.90;100.00;101315.59;5005638;28;20042;-47
2023/09/28 04:40:13;;;;;;;24.92;6.10;;;;;;;16.95;100.00;101313.56;5011841;28;20069;-48
2023/09/28 04:42:39;;;;;;;33.58;6.63;;;;;;;16.52;100.00;101246.56;5003620;28;20034;-48
2023/09/28 04:45:05;;;;;;;24.63;6.35;;;;;;;16.92;100.00;101311.94;5013768;28;20042;-48
2023/09/28 04:47:31;;;;;;;23.17;5.53;;;;;;;16.88;100.00;101313.00;5001526;28;20049;-46
2023/09/28 04:49:57;;;;;;;30.77;7.35;;;;;;;16.42;100.00;101236.50;4994369;28;20125;-46
2023/09/28 04:52:22;;;;;;;28.38;6.68;;;;;;;16.85;100.00;101311.38;5013695;28;20485;-47
2023/09/28 04:54:49;;;;;;;20.85;6.90;;;;;;;16.87;100.00;101321.91;5014954;28;20041;-50
2023/09/28 04:57:14;;;;;;;27.25;6.05;;;;;;;16.80;100.00;101308.09;5012205;28;20489;-48
2023/09/28 04:59:40;;;;;;;32.80;7.03;;;;;;;16.73;100.00;101319.97;5003971;28;20045;-50
2023/09/28 05:02:05;;;;;;;29.38;6.97;;;;;;;16.60;100.00;101316.22;5015279;28;20030;-47
2023/09/28 05:04:31;;;;;;;28.90;6.53;;;;;;;16.63;100.00;101332.00;5002097;28;20041;-48
2023/09/28 05:06:59;;;;;;;28.45;6.10;;;;;;;16.25;100.00;101261.25;4995360;28;20062;-49
2023/09/28 05:09:25;;;;;;;25.63;6.18;;;;;;;16.64;100.00;101336.38;5014401;28;20049;-47
2023/09/28 05:11:51;;;;;;;26.15;5.18;;;;;;;16.70;100.00;101325.44;5014750;28;20040;-49
2023/09/28 05:14:16;;;;;;;23.27;5.82;;;;;;;16.69;100.00;101323.72;4998603;28;20034;-46
2023/09/28 05:16:42;;;;;;;26.58;5.85;;;;;;;16.50;100.00;101298.09;4998688;28;20046;-47
2023/09/28 05:19:07;;;;;;;32.75;7.40;;;;;;;16.58;100.00;101318.06;5013461;28;20084;-49
2023/09/28 05:21:32;;;;;;;27.58;6.03;;;;;;;16.55;100.00;101336.81;5014585;28;20401;-49
2023/09/28 05:23:58;;;;;;;23.33;5.50;;;;;;;16.11;100.00;101253.94;5014365;28;20469;-49
2023/09/28 05:26:23;;;;;;;27.33;7.20;;;;;;;16.48;100.00;101334.50;5014388;28;20025;-51
2023/09/28 05:28:49;;;;;;;23.10;5.55;;;;;;;16.39;100.00;101333.16;5014625;28;20115;-47
2023/09/28 05:31:14;;;;;;;25.20;5.95;;;;;;;16.34;100.00;101336.03;5014583;28;20049;-48
2023/09/28 05:33:41;;;;;;;28.98;5.82;;;;;;;16.25;100.00;101336.50;5007267;28;20034;-48
2023/09/28 05:36:07;;;;;;;29.17;6.18;;;;;;;16.22;100.00;101354.38;5006146;28;20038;-50
2023/09/28 05:38:32;;;;;;;22.88;5.18;;;;;;;15.79;100.00;101288.28;5013810;28;20041;-48
2023/09/28 05:40:57;;;;;;;26.85;6.05;;;;;;;16.15;100.00;101358.22;5007630;28;20132;-48
2023/09/28 05:43:23;;;;;;;23.25;5.97;;;;;;;16.03;100.00;101349.06;5031974;28;20132;-51
2023/09/28 05:45:48;;;;;;;23.42;5.10;;;;;;;15.49;100.00;101242.81;5011635;28;20033;-46
2023/09/28 05:48:13;;;;;;;29.83;6.50;;;;;;;15.75;100.00;101280.47;5011908;28;20091;-46
2023/09/28 05:50:40;;;;;;;25.02;6.00;;;;;;;16.16;100.00;101352.00;5027981;28;20073;-48
2023/09/28 05:53:05;;;;;;;23.63;5.43;;;;;;;15.71;100.00;101280.66;5031502;28;20072;-46
2023/09/28 05:55:31;;;;;;;20.08;5.95;;;;;;;15.68;100.00;101260.44;5015401;28;20030;-47
2023/09/28 05:57:57;;;;;;;29.48;6.18;;;;;;;15.86;100.00;101297.66;5022076;28;20412;-46
2023/09/28 06:00:22;;;;;;;32.40;6.65;;;;;;;15.97;100.00;101309.50;5012035;28;20109;-45
2023/09/28 06:02:48;;;;;;;26.55;7.43;;;;;;;16.21;100.00;101348.19;4996004;28;20030;-44
2023/09/28 06:05:13;;;;;;;24.35;5.53;;;;;;;15.84;100.00;101288.94;5013535;28;20108;-46
2023/09/28 06:07:39;;;;;;;26.45;6.40;;;;;;;16.25;100.00;101365.72;5018799;28;20053;-48
2023/09/28 06:10:08;;;;;;;22.73;5.70;;;;;;;16.37;100.00;101374.91;5010444;28;20079;-49
2023/09/28 06:12:33;;;;;;;20.98;5.53;;;;;;;16.48;100.00;101388.53;5014547;28;20041;-47
2023/09/28 06:14:59;;;;;;;26.13;6.25;;;;;;;16.51;100.00;101376.88;5019516;28;20465;-46
2023/09/28 06:17:24;;;;;;;26.60;6.68;;;;;;;16.22;100.00;101307.44;5031123;28;20033;-51
2023/09/28 06:19:49;;;;;;;21.65;5.15;;;;;;;16.25;100.00;101303.75;5031191;28;20033;-50
2023/09/28 06:22:15;;;;;;;22.98;5.13;;;;;;;16.61;100.00;101364.88;5031551;28;20077;-48
2023/09/28 06:24:40;;;;;;;26.65;6.03;;;;;;;16.68;100.00;101372.50;5031554;28;20068;-48
2023/09/28 06:27:06;;;;;;;27.23;6.70;;;;;;;16.29;100.00;101323.91;5031546;28;20067;-48
2023/09/28 06:29:32;;;;;;;23.30;6.15;;;;;;;16.63;100.00;101378.97;5032664;28;20037;-48
2023/09/28 06:31:58;;;;;;;21.95;6.10;;;;;;;16.81;100.00;101399.34;5014178;28;20084;-48
2023/09/28 06:34:23;;;;;;;25.30;6.30;;;;;;;16.86;100.00;101400.84;5033122;28;20450;-49
2023/09/28 06:36:48;;;;;;;25.40;5.50;;;;;;;16.82;100.00;101390.41;5032926;28;20496;-48
2023/09/28 06:39:14;;;;;;;28.50;6.68;;;;;;;16.59;100.00;101353.47;5032562;28;20045;-46
2023/09/28 06:41:39;;;;;;;28.02;6.18;;;;;;;16.61;100.00;101359.56;5032493;28;20192;-47
2023/09/28 06:44:05;;;;;;;27.27;7.10;;;;;;;16.96;100.00;101424.31;5032965;28;20056;-50
2023/09/28 06:46:30;;;;;;;20.73;5.47;;;;;;;16.91;100.00;101410.38;5012507;28;20472;-47
2023/09/28 06:48:55;;;;;;;26.70;6.07;;;;;;;17.02;100.00;101429.31;5029605;28;20032;-48
2023/09/28 06:51:22;;;;;;;27.17;6.00;;;;;;;16.64;100.00;101364.72;5030529;28;20489;-46
2023/09/28 06:53:47;;;;;;;25.88;6.40;;;;;;;17.03;100.00;101420.41;5029980;28;20061;-46
2023/09/28 06:56:12;;;;;;;24.58;6.10;;;;;;;17.12;100.00;101426.13;5012612;28;20075;-48
2023/09/28 06:58:38;;;;;;;22.80;6.07;;;;;;;17.17;100.00;101420.56;5030578;28;20095;-49
2023/09/28 07:01:03;;;;;;;23.10;6.22;;;;;;;17.21;100.00;101428.34;5030339;28;20503;-50
2023/09/28 07:03:31;;;;;;;26.70;5.95;;;;;;;17.03;100.00;101405.31;5030282;28;20034;-51
2023/09/28 07:05:56;;;;;;;18.98;5.60;;;;;;;16.85;100.00;101355.69;5012143;28;20120;-48
2023/09/28 07:08:22;;;;;;;29.05;6.15;;;;;;;17.23;100.00;101428.25;5021418;28;20120;-45
2023/09/28 07:10:47;;;;;;;22.85;5.85;;;;;;;17.24;100.00;101435.31;5023101;28;20157;-48
2023/09/28 07:13:12;;;;;;;19.13;4.90;;;;;;;17.30;100.00;101427.00;5010131;28;20045;-49
2023/09/28 07:15:37;;;;;;;21.10;5.50;;;;;;;17.28;100.00;101442.16;5010142;28;20033;-47
2023/09/28 07:18:03;;;;;;;17.10;5.15;;;;;;;17.35;100.00;101438.28;5010548;28;20044;-48
2023/09/28 07:20:29;;;;;;;23.02;5.47;;;;;;;17.41;100.00;101448.59;4996990;28;20111;-50
2023/09/28 07:22:55;;;;;;;27.85;6.60;;;;;;;17.18;100.00;101404.56;4998562;28;20378;-50
2023/09/28 07:25:21;;;;;;;24.58;6.25;;;;;;;17.28;100.00;101424.41;5011315;28;20464;-51
2023/09/28 07:27:49;;;;;;;28.52;6.88;;;;;;;17.54;100.00;101448.84;5015075;28;20084;-50
2023/09/28 07:30:15;;;;;;;17.63;5.32;;;;;;;17.46;100.00;101449.22;4978867;28;20033;-51
2023/09/28 07:32:41;;;;;;;20.98;5.25;;;;;;;17.29;100.00;101412.84;5027680;28;20099;-48
2023/09/28 07:35:10;;;;;;;24.17;5.85;;;;;;;17.18;100.00;101396.56;5029347;28;20037;-51
2023/09/28 07:37:36;;;;;;;23.23;6.07;;;;;;;17.81;100.00;101482.91;5028226;28;20033;-50
2023/09/28 07:40:04;;;;;;;20.75;5.82;;;;;;;17.85;100.00;101486.28;5010626;28;20046;-54
2023/09/28 07:42:30;;;;;;;28.40;6.18;;;;;;;17.60;100.00;101438.75;5010827;28;20034;-52
2023/09/28 07:44:55;;;;;;;20.50;6.25;;;;;;;17.55;100.00;101421.31;5010451;28;20405;-47
2023/09/28 07:47:21;;;;;;;22.23;5.57;;;;;;;18.03;100.00;101490.66;5010046;28;20052;-51
2023/09/28 07:49:47;;;;;;;25.42;5.95;;;;;;;17.64;100.00;101421.69;5010034;28;20524;-47
2023/09/28 07:52:12;;;;;;;25.02;6.07;;;;;;;17.97;100.00;101496.31;5009823;28;20042;-50
2023/09/28 07:54:37;;;;;;;23.30;5.53;;;;;;;18.05;100.00;101528.72;5010146;28;20434;-49
2023/09/28 07:57:04;;;;;;;21.75;5.43;;;;;;;17.99;100.00;101507.72;5010034;28;20045;-47
2023/09/28 07:59:34;;;;;;;26.67;6.72;;;;;;;17.88;100.00;101487.00;4993189;28;20045;-50
2023/09/28 08:02:00;;;;;;;22.85;5.82;;;;;;;17.93;100.00;101487.59;5010545;28;20121;-49
2023/09/28 08:04:25;;;;;;;23.38;6.03;;;;;;;18.07;100.00;101508.19;5010517;28;20128;-52
2023/09/28 08:06:51;;;;;;;22.92;5.43;;;;;;;17.76;100.00;101441.50;5013422;28;20034;-48
2023/09/28 08:09:19;;;;;;;24.27;5.72;;;;;;;17.86;100.00;101448.06;5014225;28;20046;-47
2023/09/28 08:11:45;;;;;;;25.23;5.95;;;;;;;17.93;100.00;101449.44;5014547;28;20486;-46
2023/09/28 08:14:15;;;;;;;27.80;5.97;;;;;;;18.03;100.00;101449.81;4980595;28;20034;-52
2023/09/28 08:16:41;;;;;;;27.90;6.10;;;;;;;18.45;100.00;101532.78;4997482;28;20030;-51
2023/09/28 08:19:06;;;;;;;31.80;6.93;;;;;;;18.47;100.00;101533.59;4996702;28;20509;-52
2023/09/28 08:21:31;;;;;;;23.77;5.57;;;;;;;18.56;100.00;101527.78;4996566;28;20115;-52
2023/09/28 08:23:58;;;;;;;23.83;5.53;;;;;;;18.64;100.00;101533.56;4996521;28;20393;-48
2023/09/28 08:26:23;;;;;;;19.50;5.55;;;;;;;18.65;100.00;101523.75;5014402;28;20034;-50
2023/09/28 08:28:49;;;;;;;22.63;5.55;;;;;;;18.54;100.00;101484.31;5014451;28;20049;-48
2023/09/28 08:31:14;;;;;;;21.25;5.50;;;;;;;18.82;100.00;101491.66;5013905;28;20080;-49
2023/09/28 08:33:40;;;;;;;18.95;5.32;;;;;;;19.32;100.00;101534.16;5014320;28;20389;-50
2023/09/28 08:36:08;;;;;;;22.90;5.93;;;;;;;19.22;100.00;101539.16;5013991;28;20416;-49
2023/09/28 08:38:34;;;;;;;28.20;5.60;;;;;;;19.00;100.00;101503.97;5013625;28;20037;-50
2023/09/28 08:41:00;;;;;;;28.90;5.20;;;;;;;19.12;100.00;101527.25;5013899;28;20390;-49
2023/09/28 08:43:30;;;;;;;23.65;5.72;;;;;;;18.95;100.00;101482.88;5013871;28;20032;-50
2023/09/28 08:45:57;;;;;;;29.37;6.00;;;;;;;19.53;100.00;101555.16;5013715;28;20048;-51
2023/09/28 08:48:27;;;;;;;22.90;6.97;;;;;;;19.58;100.00;101555.72;4979781;28;20076;-54
2023/09/28 08:50:58;;;;;;;24.35;6.40;;;;;;;19.58;100.00;101538.88;4996338;28;20042;-52
2023/09/28 08:53:23;;;;;;;23.23;5.70;;;;;;;19.74;100.00;101573.53;4996087;28;20026;-50
2023/09/28 08:55:49;;;;;;;19.35;5.70;;;;;;;19.78;100.00;101575.09;5013759;28;20038;-49
2023/09/28 08:58:14;;;;;;;20.90;5.50;;;;;;;19.67;100.00;101576.56;5013443;28;20061;-48
2023/09/28 09:00:41;;;;;;;20.13;5.65;;;;;;;19.31;100.00;101535.09;5013614;28;20040;-52
2023/09/28 09:03:08;;;;;;;27.52;6.25;;;;;;;19.09;100.00;101512.28;4996035;28;20030;-53
2023/09/28 09:05:36;;;;;;;21.13;6.20;;;;;;;19.37;100.00;101589.00;5013285;28;20083;-50
2023/09/28 09:08:01;;;;;;;22.08;6.28;;;;;;;19.27;100.00;101576.25;4995959;28;20469;-48
2023/09/28 09:10:27;;;;;;;19.55;5.15;;;;;;;19.21;100.00;101584.59;5013370;28;20048;-46
2023/09/28 09:12:53;;;;;;;26.42;5.80;;;;;;;19.07;100.00;101588.06;4995855;28;20444;-46
2023/09/28 09:15:19;;;;;;;21.67;5.57;;;;;;;18.67;100.00;101543.19;5013425;28;20041;-50
2023/09/28 09:17:45;;;;;;;19.67;5.60;;;;;;;18.68;100.00;101550.25;4995494;28;20160;-49
2023/09/28 09:20:10;;;;;;;28.52;6.25;;;;;;;18.72;100.00;101551.78;5013265;28;20030;-46
2023/09/28 09:22:36;;;;;;;17.90;4.88;;;;;;;18.75;100.00;101570.28;4995856;28;20042;-48
2023/09/28 09:25:02;;;;;;;21.27;5.82;;;;;;;18.41;100.00;101504.59;4995728;28;20442;-50
2023/09/28 09:27:29;;;;;;;20.27;5.60;;;;;;;18.85;100.00;101591.06;5013236;28;20052;-50
2023/09/28 09:29:58;;;;;;;25.60;6.15;;;;;;;18.47;100.00;101504.25;5013103;28;20037;-50
2023/09/28 09:32:27;;;;;;;22.25;5.65;;;;;;;18.69;100.00;101520.81;5012921;28;20085;-48
2023/09/28 09:34:53;;;;;;;29.27;7.03;;;;;;;18.70;100.00;101506.56;4995389;28;20045;-50
2023/09/28 09:37:19;;;;;;;21.35;6.18;;;;;;;18.93;100.00;101502.59;5012761;28;20037;-51
2023/09/28 09:39:45;;;;;;;26.23;6.28;;;;;;;19.34;100.00;101549.13;5012873;28;20096;-51
2023/09/28 09:42:10;;;;;;;29.70;6.75;;;;;;;19.53;100.00;101554.28;4995182;28;20505;-50
2023/09/28 09:44:36;;;;;;;18.65;4.88;;;;;;;19.77;100.00;101565.34;5012657;28;20096;-47
2023/09/28 09:47:02;;;;;;;23.60;6.78;;;;;;;19.42;100.00;101516.66;5012427;28;20030;-48
2023/09/28 09:49:28;;;;;;;18.60;6.15;;;;;;;19.64;100.00;101506.47;5012554;28;20183;-49
2023/09/28 09:51:54;;;;;;;19.10;6.03;;;;;;;19.67;100.00;101511.63;4994796;28;20432;-47
2023/09/28 09:54:20;;;;;;;15.27;4.72;;;;;;;19.86;100.00;101514.03;5012354;28;20114;-50
2023/09/28 09:56:50;;;;;;;23.73;5.78;;;;;;;20.56;100.00;101548.91;5012185;28;20470;-50
2023/09/28 09:59:17;;;;;;;20.35;5.90;;;;;;;20.62;100.00;101574.41;5012185;28;20068;-49
2023/09/28 10:01:50;;;;;;;16.92;5.13;;;;;;;20.45;100.00;101535.34;5012144;28;20547;-49
2023/09/28 10:04:17;;;;;;;21.65;5.10;;;;;;;20.81;100.00;101614.25;5012237;28;20034;-48
2023/09/28 10:06:51;;;;;;;18.73;5.35;;;;;;;20.72;100.00;101615.69;5012417;28;20041;-48
2023/09/28 10:09:17;;;;;;;20.15;5.45;;;;;;;20.82;100.00;101640.03;5012207;28;20104;-46
2023/09/28 10:11:45;;;;;;;21.02;5.22;;;;;;;20.26;100.00;101576.69;4994514;28;20129;-48
2023/09/28 10:14:11;;;;;;;19.10;4.80;;;;;;;20.34;100.00;101633.22;5012041;28;20046;-49
2023/09/28 10:16:37;;;;;;;27.52;5.20;;;;;;;20.30;100.00;101640.56;4994614;28;20041;-48
2023/09/28 10:19:05;;;;;;;18.48;4.80;;;;;;;19.99;100.00;101584.50;4994635;28;20052;-47
2023/09/28 10:21:35;;;;;;;24.92;6.68;;;;;;;20.21;100.00;101636.59;5011908;28;20084;-48
2023/09/28 10:24:08;;;;;;;21.83;5.63;;;;;;;20.13;100.00;101646.88;5011829;28;20474;-48
2023/09/28 10:26:35;;;;;;;27.00;5.55;;;;;;;20.14;100.00;101619.19;5011824;28;20152;-52
2023/09/28 10:29:05;;;;;;;23.27;6.18;;;;;;;20.51;100.00;101608.97;4993721;28;20592;-52
2023/09/28 10:31:32;;;;;;;21.92;5.82;;;;;;;20.49;100.00;101565.44;4994193;28;20030;-47
2023/09/28 10:34:02;;;;;;;19.95;4.53;;;;;;;20.80;100.00;101632.13;4993805;28;20038;-49
2023/09/28 10:36:28;;;;;;;18.20;5.28;;;;;;;20.83;100.00;101631.06;5011876;28;20088;-50
2023/09/28 10:39:10;;;;;;;22.60;4.88;;;;;;;20.51;100.00;101598.28;5011437;28;20040;-47
2023/09/28 10:41:39;;;;;;;26.73;5.50;;;;;;;20.86;100.00;101642.44;5010242;28;20049;-49
2023/09/28 10:44:21;;;;;;;24.13;5.18;;;;;;;20.15;100.00;101523.81;5011176;28;20041;-49
2023/09/28 10:46:50;;;;;;;22.42;4.40;;;;;;;20.32;100.00;101578.94;5010914;28;20117;-48
2023/09/28 10:49:27;;;;;;;24.05;5.53;;;;;;;20.31;100.00;101575.44;5009797;28;20127;-50
2023/09/28 10:51:56;;;;;;;19.80;6.00;;;;;;;20.58;100.00;101637.91;4993311;28;20042;-47
2023/09/28 10:54:25;;;;;;;24.58;5.85;;;;;;;20.67;100.00;101652.53;4993874;28;20033;-50
2023/09/28 10:56:51;;;;;;;23.15;6.18;;;;;;;20.57;100.00;101646.06;5011264;28;20038;-46
2023/09/28 10:59:19;;;;;;;24.48;5.70;;;;;;;19.94;100.00;101566.06;5011280;28;20507;-51
2023/09/28 11:01:45;;;;;;;18.27;5.25;;;;;;;19.84;100.00;101559.56;4993396;28;20049;-50
2023/09/28 11:04:12;;;;;;;23.27;5.50;;;;;;;20.47;100.00;101635.03;4993277;28;20389;-50
2023/09/28 11:06:38;;;;;;;18.48;5.07;;;;;;;20.55;100.00;101655.97;4994337;28;20481;-47
2023/09/28 11:09:07;;;;;;;18.80;5.03;;;;;;;20.48;100.00;101662.66;5011857;28;20040;-53